Miguelopolis, Brazil
Current Conditions -  °F | °C
As of 1:00 PM on Thursday 23 Oct 2014 (Local Time) from SBUR Reporting Station
Rain Showers Rain Showers  
Wind Chill: 86°   Ceiling: 4000
Heat Index: 86°   Visibility: 6mi
Dew Point: 59°   Wind: 7mph
Humidity: 40%   Direction: 10°N
Pressure: 30.12"   Gusts: NA
Location:  20.18°S, 48.03°W
Report Text: SBUR 231500Z 01006KT 9999 VCSH BKN040 FEW050TCU 30/15 Q1020
Loading
Personal Weather Stations






























Interactive Weather Map
Tropical Storm Tracking
New forecast layout! Learn more

10-Day Weather Forecast

Advertisements
Track Severe Weather on mobile